Time;durP1;ratioP1;P1;durP2;ratioP2;P2;SDS_P1;SDS_P2;PMS_P1;PMS_P2;Temp;Humidity;BMP_temperature;BMP_pressure;BME280_temperature;BME280_humidity;BME280_pressure;Samples;Min_cycle;Max_cycle;Signal;HPM_P1;HPM_P2
2022/12/28 00:02:07;;;;;;;;;;;20.70;62.00;;;;;;6247768;28;19967;-53
2022/12/28 00:05:09;;;;;;;;;;;20.50;61.90;;;;;;6247045;28;20381;-52
2022/12/28 00:08:10;;;;;;;;;;;21.00;62.10;;;;;;6247066;28;19921;-52
2022/12/28 00:11:12;;;;;;;;;;;20.70;62.20;;;;;;6248496;28;20362;-55
2022/12/28 00:14:29;;;;;;;;;;;20.40;61.50;;;;;;6250977;28;19928;-54
2022/12/28 00:17:30;;;;;;;;;;;20.30;61.80;;;;;;6251098;28;20099;-54
2022/12/28 00:20:32;;;;;;;;;;;20.40;61.90;;;;;;6251260;28;20023;-48
2022/12/28 00:23:33;;;;;;;;;;;20.80;62.00;;;;;;6250819;28;19921;-54
2022/12/28 00:26:35;;;;;;;;;;;20.40;61.90;;;;;;6251076;28;19928;-53
2022/12/28 00:29:36;;;;;;;;;;;20.50;61.80;;;;;;6251016;28;19921;-52
2022/12/28 00:32:38;;;;;;;;;;;20.40;61.70;;;;;;6250329;28;19921;-53
2022/12/28 00:35:40;;;;;;;;;;;20.70;61.20;;;;;;6250898;28;19928;-53
2022/12/28 00:38:41;;;;;;;;;;;20.70;61.30;;;;;;6250834;28;19925;-55
2022/12/28 00:41:43;;;;;;;;;;;21.10;61.50;;;;;;6251500;28;19921;-55
2022/12/28 00:44:45;;;;;;;;;;;20.80;61.10;;;;;;6250802;28;20369;-53
2022/12/28 00:47:50;;;;;;;;;;;21.00;62.10;;;;;;6250662;28;20339;-55
2022/12/28 00:50:59;;;;;;;;;;;20.90;61.90;;;;;;6250410;28;19921;-52
2022/12/28 00:54:00;;;;;;;;;;;20.70;62.00;;;;;;6250744;28;19975;-51
2022/12/28 00:57:02;;;;;;;;;;;20.80;62.20;;;;;;6250257;28;20265;-53
2022/12/28 01:00:03;;;;;;;;;;;20.60;61.10;;;;;;6250146;28;19925;-52
2022/12/28 01:03:05;;;;;;;;;;;20.50;61.80;;;;;;6250528;28;20373;-52
2022/12/28 01:06:08;;;;;;;;;;;20.80;62.00;;;;;;6250184;28;20332;-53
2022/12/28 01:09:10;;;;;;;;;;;20.50;61.80;;;;;;6249575;28;20031;-55
2022/12/28 01:12:11;;;;;;;;;;;21.20;62.30;;;;;;6249884;28;19944;-53
2022/12/28 01:15:13;;;;;;;;;;;20.80;62.30;;;;;;6249858;28;19921;-53
2022/12/28 01:18:15;;;;;;;;;;;20.90;62.70;;;;;;6249809;28;19959;-54
2022/12/28 01:21:18;;;;;;;;;;;20.80;62.10;;;;;;6250080;28;19921;-55
2022/12/28 01:24:19;;;;;;;;;;;20.60;62.00;;;;;;6249136;28;19979;-54
2022/12/28 01:27:20;;;;;;;;;;;20.50;61.80;;;;;;6249934;28;19932;-54
2022/12/28 01:30:22;;;;;;;;;;;20.40;61.80;;;;;;6250087;28;19921;-52
2022/12/28 01:33:23;;;;;;;;;;;20.80;62.10;;;;;;6249910;28;19921;-54
2022/12/28 01:36:26;;;;;;;;;;;20.50;61.10;;;;;;6249945;28;19921;-54
2022/12/28 01:39:28;;;;;;;;;;;20.70;62.00;;;;;;6250274;28;20467;-53
2022/12/28 01:42:29;;;;;;;;;;;21.20;62.30;;;;;;6249784;28;20320;-54
2022/12/28 01:45:30;;;;;;;;;;;20.90;62.00;;;;;;6249666;28;19928;-52
2022/12/28 01:48:33;;;;;;;;;;;20.30;61.80;;;;;;6249734;28;19995;-55
2022/12/28 01:51:38;;;;;;;;;;;20.60;61.80;;;;;;6249481;28;19921;-54
2022/12/28 01:54:41;;;;;;;;;;;20.40;61.70;;;;;;6249606;28;19928;-55
2022/12/28 01:57:44;;;;;;;;;;;20.60;61.80;;;;;;6249418;28;19991;-51
2022/12/28 02:00:45;;;;;;;;;;;20.90;62.00;;;;;;6249439;28;19925;-54
2022/12/28 02:03:46;;;;;;;;;;;20.50;61.90;;;;;;6249108;28;20293;-54
2022/12/28 02:06:48;;;;;;;;;;;20.40;61.80;;;;;;6248844;28;19925;-55
2022/12/28 02:09:53;;;;;;;;;;;21.00;62.20;;;;;;6249468;28;19921;-54
2022/12/28 02:13:14;;;;;;;;;;;20.90;61.90;;;;;;6248473;28;19928;-56
2022/12/28 02:16:16;;;;;;;;;;;20.70;61.80;;;;;;6248019;28;19921;-53
2022/12/28 02:19:19;;;;;;;;;;;20.70;62.10;;;;;;6248913;28;20370;-56
2022/12/28 02:22:33;;;;;;;;;;;20.70;62.00;;;;;;6249372;28;19962;-54
2022/12/28 02:25:52;;;;;;;;;;;20.50;61.60;;;;;;6249092;28;19927;-54
2022/12/28 02:29:04;;;;;;;;;;;20.50;61.60;;;;;;6248070;28;19928;-53
2022/12/28 02:32:11;;;;;;;;;;;20.50;61.60;;;;;;6249195;28;19920;-53
2022/12/28 02:35:16;;;;;;;;;;;20.60;61.10;;;;;;6247628;28;19921;-55
2022/12/28 02:38:20;;;;;;;;;;;20.40;61.70;;;;;;6248673;28;19920;-55
2022/12/28 02:41:24;;;;;;;;;;;20.80;61.70;;;;;;6247629;28;19921;-55
2022/12/28 02:50:59;;;;;;;;;;;20.40;61.60;;;;;;6247630;28;19921;-54
2022/12/28 02:56:05;;;;;;;;;;;20.30;61.40;;;;;;6248528;28;19975;-52
2022/12/28 02:57:41;;;;;;;;;;;20.40;61.50;;;;;;6247262;28;20040;-55
2022/12/28 03:00:50;;;;;;;;;;;20.80;61.70;;;;;;6248864;28;19928;-54
2022/12/28 03:03:56;;;;;;;;;;;20.70;61.70;;;;;;6248536;28;19925;-55
2022/12/28 03:10:17;;;;;;;;;;;20.80;62.00;;;;;;6248585;28;20299;-53
2022/12/28 03:25:41;;;;;;;;;;;20.90;61.80;;;;;;6247094;28;19921;-53
2022/12/28 03:33:14;;;;;;;;;;;20.60;61.90;;;;;;6247665;28;20254;-54
2022/12/28 03:36:19;;;;;;;;;;;20.60;61.30;;;;;;6248085;28;19921;-54
2022/12/28 03:39:27;;;;;;;;;;;20.40;61.60;;;;;;6246446;28;19925;-54
2022/12/28 03:45:48;;;;;;;;;;;20.80;61.90;;;;;;6249262;28;19920;-53
2022/12/28 03:48:57;;;;;;;;;;;21.20;62.20;;;;;;6255988;28;19920;-53
2022/12/28 03:51:59;;;;;;;;;;;20.60;61.80;;;;;;6255876;28;20369;-55
2022/12/28 03:55:04;;;;;;;;;;;20.40;61.70;;;;;;6255703;28;20335;-54
2022/12/28 03:58:06;;;;;;;;;;;20.40;61.80;;;;;;6254464;28;19925;-55
2022/12/28 04:01:08;;;;;;;;;;;20.30;61.80;;;;;;6255716;28;20023;-55
2022/12/28 04:04:12;;;;;;;;;;;20.90;62.10;;;;;;6255560;28;19928;-54
2022/12/28 04:07:14;;;;;;;;;;;20.40;61.90;;;;;;6255807;28;19920;-54
2022/12/28 04:10:15;;;;;;;;;;;20.50;62.00;;;;;;6256280;28;20020;-55
2022/12/28 04:13:16;;;;;;;;;;;20.70;62.70;;;;;;6255380;28;19921;-54
2022/12/28 04:16:27;;;;;;;;;;;20.80;62.10;;;;;;6255666;28;19987;-55
2022/12/28 04:19:29;;;;;;;;;;;21.00;62.00;;;;;;6255410;28;19948;-52
2022/12/28 04:22:31;;;;;;;;;;;20.80;62.00;;;;;;6255991;28;19925;-52
2022/12/28 04:25:33;;;;;;;;;;;20.40;61.90;;;;;;6255543;28;19943;-54
2022/12/28 04:28:35;;;;;;;;;;;20.40;61.90;;;;;;6255195;28;20373;-54
2022/12/28 04:31:52;;;;;;;;;;;20.40;61.90;;;;;;6255236;28;20004;-53
2022/12/28 04:34:55;;;;;;;;;;;20.50;61.30;;;;;;6255774;28;20003;-53
2022/12/28 04:37:57;;;;;;;;;;;20.40;61.90;;;;;;6255143;28;19921;-54
2022/12/28 04:40:58;;;;;;;;;;;20.80;62.00;;;;;;6255086;28;19921;-54
2022/12/28 04:43:59;;;;;;;;;;;20.50;62.00;;;;;;6255343;28;19921;-53
2022/12/28 04:47:01;;;;;;;;;;;20.60;61.90;;;;;;6255083;28;20316;-52
2022/12/28 04:50:03;;;;;;;;;;;21.20;62.30;;;;;;6254685;28;19928;-53
2022/12/28 04:53:04;;;;;;;;;;;20.40;61.80;;;;;;6255163;28;19921;-55
2022/12/28 04:56:06;;;;;;;;;;;20.80;62.10;;;;;;6254831;28;20428;-53
2022/12/28 04:59:07;;;;;;;;;;;20.80;62.00;;;;;;6249530;28;19921;-54
2022/12/28 05:02:09;;;;;;;;;;;20.60;62.10;;;;;;6250981;28;20015;-53
2022/12/28 05:05:11;;;;;;;;;;;20.70;62.20;;;;;;6250733;28;19921;-53
2022/12/28 05:08:12;;;;;;;;;;;20.50;61.90;;;;;;6250573;28;19925;-54
2022/12/28 05:11:14;;;;;;;;;;;20.60;61.40;;;;;;6250740;28;19921;-54
2022/12/28 05:14:16;;;;;;;;;;;20.50;61.30;;;;;;6249024;28;19960;-55
2022/12/28 05:17:17;;;;;;;;;;;20.70;62.00;;;;;;6249835;28;19921;-54
2022/12/28 05:20:19;;;;;;;;;;;21.00;62.10;;;;;;6250203;28;19944;-52
2022/12/28 05:23:20;;;;;;;;;;;20.80;62.30;;;;;;6250407;28;19947;-52
2022/12/28 05:26:23;;;;;;;;;;;20.50;62.00;;;;;;6250198;28;19925;-53
2022/12/28 05:29:25;;;;;;;;;;;20.40;61.90;;;;;;6250004;28;19952;-53
2022/12/28 05:32:26;;;;;;;;;;;20.30;62.10;;;;;;6250271;28;19953;-54
2022/12/28 05:35:28;;;;;;;;;;;20.60;61.30;;;;;;6250086;28;19921;-52
2022/12/28 05:38:29;;;;;;;;;;;20.40;61.90;;;;;;6249824;28;19929;-55
2022/12/28 05:41:30;;;;;;;;;;;20.80;62.30;;;;;;6249952;28;19975;-54
2022/12/28 05:44:31;;;;;;;;;;;20.50;62.00;;;;;;6249802;28;20365;-54
2022/12/28 05:47:33;;;;;;;;;;;20.80;62.10;;;;;;6249744;28;20005;-54
2022/12/28 05:50:35;;;;;;;;;;;21.10;62.40;;;;;;6249981;28;19921;-54
2022/12/28 05:53:36;;;;;;;;;;;20.50;61.90;;;;;;6249691;28;20385;-51
2022/12/28 05:56:38;;;;;;;;;;;20.30;61.90;;;;;;6250316;28;20285;-53
2022/12/28 05:59:39;;;;;;;;;;;20.60;61.90;;;;;;6249603;28;20031;-53
2022/12/28 06:02:41;;;;;;;;;;;20.20;61.90;;;;;;6249609;28;20339;-53
2022/12/28 06:05:43;;;;;;;;;;;20.80;62.20;;;;;;6249402;28;19921;-51
2022/12/28 06:08:45;;;;;;;;;;;21.00;62.10;;;;;;6249496;28;19953;-54
2022/12/28 06:11:46;;;;;;;;;;;20.90;62.00;;;;;;6249442;28;19921;-55
2022/12/28 06:14:47;;;;;;;;;;;20.90;62.30;;;;;;6249239;28;20370;-54
2022/12/28 06:17:51;;;;;;;;;;;21.20;62.30;;;;;;6249487;28;19921;-53
2022/12/28 06:20:53;;;;;;;;;;;20.70;61.70;;;;;;6247916;28;20340;-52
2022/12/28 06:23:58;;;;;;;;;;;20.60;62.00;;;;;;6249863;28;19921;-54
2022/12/28 06:27:00;;;;;;;;;;;20.70;62.00;;;;;;6248002;28;19967;-52
2022/12/28 06:30:01;;;;;;;;;;;20.80;62.50;;;;;;6249732;28;19925;-56
2022/12/28 06:33:03;;;;;;;;;;;21.10;62.40;;;;;;6248762;28;20446;-53
2022/12/28 06:36:09;;;;;;;;;;;20.60;61.40;;;;;;6249165;28;19928;-55
2022/12/28 06:39:17;;;;;;;;;;;20.30;61.90;;;;;;6247894;28;19928;-54
2022/12/28 06:42:18;;;;;;;;;;;20.70;61.50;;;;;;6249636;28;20011;-52
2022/12/28 06:45:19;;;;;;;;;;;21.20;62.50;;;;;;6249118;28;20010;-53
2022/12/28 06:48:21;;;;;;;;;;;20.40;61.60;;;;;;6248623;28;20373;-53
2022/12/28 06:51:23;;;;;;;;;;;20.90;62.40;;;;;;6248494;28;20296;-55
2022/12/28 06:54:25;;;;;;;;;;;20.40;62.00;;;;;;6248756;28;19925;-51
2022/12/28 06:57:26;;;;;;;;;;;20.80;61.70;;;;;;6248823;28;19978;-53
2022/12/28 07:00:27;;;;;;;;;;;20.30;62.00;;;;;;6248358;28;19921;-54
2022/12/28 07:03:29;;;;;;;;;;;21.00;62.60;;;;;;6247785;28;19928;-53
2022/12/28 07:06:33;;;;;;;;;;;20.50;62.10;;;;;;6248129;28;19928;-55
2022/12/28 07:09:34;;;;;;;;;;;21.20;62.40;;;;;;6247223;28;19921;-53
2022/12/28 07:12:36;;;;;;;;;;;20.40;62.10;;;;;;6248377;28;19928;-51
2022/12/28 07:15:38;;;;;;;;;;;20.70;62.30;;;;;;6248000;28;20011;-51
2022/12/28 07:18:40;;;;;;;;;;;20.90;62.20;;;;;;6247797;28;19972;-53
2022/12/28 07:21:42;;;;;;;;;;;21.20;62.30;;;;;;6247452;28;19931;-53
2022/12/28 07:24:43;;;;;;;;;;;20.80;62.20;;;;;;6247867;28;19975;-53
2022/12/28 07:27:44;;;;;;;;;;;21.10;62.50;;;;;;6247743;28;19928;-55
2022/12/28 07:30:46;;;;;;;;;;;20.30;61.70;;;;;;6247999;28;19921;-53
2022/12/28 07:33:47;;;;;;;;;;;20.60;61.30;;;;;;6247809;28;19955;-53
2022/12/28 07:36:49;;;;;;;;;;;20.40;61.90;;;;;;6246301;28;19921;-55
2022/12/28 07:39:51;;;;;;;;;;;20.90;62.10;;;;;;6248134;28;19992;-54
2022/12/28 07:42:52;;;;;;;;;;;20.80;61.80;;;;;;6247529;28;19921;-53
2022/12/28 07:45:58;;;;;;;;;;;21.30;62.20;;;;;;6247372;28;19921;-54
2022/12/28 07:48:59;;;;;;;;;;;20.50;61.40;;;;;;6247250;28;19921;-56
2022/12/28 07:52:02;;;;;;;;;;;21.30;62.10;;;;;;6247483;28;20333;-53
2022/12/28 07:55:03;;;;;;;;;;;21.00;61.90;;;;;;6247242;28;19971;-53
2022/12/28 07:58:04;;;;;;;;;;;21.10;61.90;;;;;;6246873;28;19921;-53
2022/12/28 08:01:06;;;;;;;;;;;20.70;61.60;;;;;;6247311;28;19928;-53
2022/12/28 08:04:09;;;;;;;;;;;21.00;61.80;;;;;;6247249;28;20023;-52
2022/12/28 08:07:11;;;;;;;;;;;21.00;61.50;;;;;;6245989;28;19920;-53
2022/12/28 08:10:12;;;;;;;;;;;21.30;61.80;;;;;;6246520;28;20392;-54
2022/12/28 08:13:13;;;;;;;;;;;21.00;61.40;;;;;;6246567;28;19921;-55
2022/12/28 08:16:17;;;;;;;;;;;21.20;61.80;;;;;;6246751;28;20343;-56
2022/12/28 08:19:18;;;;;;;;;;;20.80;61.40;;;;;;6246903;28;20300;-53
2022/12/28 08:22:20;;;;;;;;;;;21.20;61.50;;;;;;6246691;28;20373;-51
2022/12/28 08:25:21;;;;;;;;;;;21.10;70.90;;;;;;6246562;28;19924;-52
2022/12/28 08:28:22;;;;;;;;;;;21.30;71.90;;;;;;6247101;28;19921;-50
2022/12/28 08:31:25;;;;;;;;;;;20.80;65.50;;;;;;6246778;28;19921;-49
2022/12/28 08:34:26;;;;;;;;;;;20.80;64.50;;;;;;6248805;28;19925;-53
2022/12/28 08:37:29;;;;;;;;;;;20.80;65.20;;;;;;6251001;28;20450;-53
2022/12/28 08:40:30;;;;;;;;;;;21.30;65.10;;;;;;6251072;28;19921;-52
2022/12/28 08:43:32;;;;;;;;;;;20.70;66.20;;;;;;6250742;28;19952;-50
2022/12/28 08:46:34;;;;;;;;;;;21.60;67.20;;;;;;6250954;28;19921;-52
2022/12/28 08:49:36;;;;;;;;;;;20.70;66.50;;;;;;6249608;28;19936;-49
2022/12/28 08:52:38;;;;;;;;;;;21.30;67.10;;;;;;6249186;28;20328;-50
2022/12/28 08:55:39;;;;;;;;;;;21.10;67.10;;;;;;6250923;28;19970;-51
2022/12/28 08:58:42;;;;;;;;;;;21.50;67.10;;;;;;6250399;28;19921;-52
2022/12/28 09:01:44;;;;;;;;;;;21.10;68.00;;;;;;6249220;28;20423;-50
2022/12/28 09:04:46;;;;;;;;;;;21.60;67.00;;;;;;6249178;28;19921;-53
2022/12/28 09:07:50;;;;;;;;;;;21.00;66.20;;;;;;6250317;28;19928;-53
2022/12/28 09:10:58;;;;;;;;;;;21.60;66.70;;;;;;6250316;28;19928;-54
2022/12/28 09:14:00;;;;;;;;;;;20.70;65.90;;;;;;6250584;28;19928;-55
2022/12/28 09:17:01;;;;;;;;;;;21.00;65.70;;;;;;6249818;28;19928;-52
2022/12/28 09:20:03;;;;;;;;;;;21.90;66.60;;;;;;6250145;28;20288;-53
2022/12/28 09:23:05;;;;;;;;;;;21.90;66.30;;;;;;6250369;28;19927;-52
2022/12/28 09:26:07;;;;;;;;;;;20.90;65.90;;;;;;6250084;28;19925;-52
2022/12/28 09:29:10;;;;;;;;;;;21.40;66.00;;;;;;6249963;28;19971;-52
2022/12/28 09:32:11;;;;;;;;;;;21.20;65.80;;;;;;6249469;28;19947;-49
2022/12/28 09:35:13;;;;;;;;;;;21.10;65.20;;;;;;6250065;28;19944;-49
2022/12/28 09:38:15;;;;;;;;;;;21.30;65.40;;;;;;6249752;28;19921;-51
2022/12/28 09:41:21;;;;;;;;;;;21.70;65.90;;;;;;6250170;28;19921;-51
2022/12/28 09:44:33;;;;;;;;;;;21.10;65.50;;;;;;6249468;28;19921;-51
2022/12/28 09:47:37;;;;;;;;;;;21.90;65.90;;;;;;6249745;28;20281;-53
2022/12/28 09:50:39;;;;;;;;;;;21.40;65.60;;;;;;6249548;28;20373;-51
2022/12/28 09:53:41;;;;;;;;;;;21.40;65.10;;;;;;6249551;28;19928;-49
2022/12/28 09:56:44;;;;;;;;;;;21.30;63.50;;;;;;6249909;28;19921;-52
2022/12/28 09:59:45;;;;;;;;;;;22.00;64.40;;;;;;6249132;28;19975;-53
2022/12/28 10:02:50;;;;;;;;;;;21.10;62.50;;;;;;6248590;28;19921;-54
2022/12/28 10:05:52;;;;;;;;;;;21.70;62.50;;;;;;6248053;28;19956;-51
2022/12/28 10:08:55;;;;;;;;;;;21.20;62.10;;;;;;6249882;28;20020;-51
2022/12/28 10:11:57;;;;;;;;;;;21.60;62.40;;;;;;6249546;28;19928;-51
2022/12/28 10:14:58;;;;;;;;;;;22.10;62.50;;;;;;6249352;28;19928;-52
2022/12/28 10:18:00;;;;;;;;;;;21.90;62.10;;;;;;6248961;28;20293;-53
2022/12/28 10:21:02;;;;;;;;;;;21.30;61.80;;;;;;6249313;28;19925;-53
2022/12/28 10:24:05;;;;;;;;;;;21.60;62.00;;;;;;6248674;28;20380;-51
2022/12/28 10:27:29;;;;;;;;;;;21.30;61.90;;;;;;6247588;28;19925;-49
2022/12/28 10:30:30;;;;;;;;;;;21.70;62.10;;;;;;6249156;28;20023;-53
2022/12/28 10:33:32;;;;;;;;;;;21.40;61.10;;;;;;6248652;28;19964;-54
2022/12/28 10:36:33;;;;;;;;;;;22.20;62.30;;;;;;6248628;28;19921;-52
2022/12/28 10:39:37;;;;;;;;;;;21.10;61.50;;;;;;6248882;28;20414;-51
2022/12/28 10:42:40;;;;;;;;;;;21.80;61.90;;;;;;6249104;28;19950;-50
2022/12/28 10:45:45;;;;;;;;;;;21.60;61.70;;;;;;6247429;28;20293;-49
2022/12/28 10:48:49;;;;;;;;;;;22.10;62.00;;;;;;6248619;28;19921;-51
2022/12/28 10:52:04;;;;;;;;;;;21.50;61.60;;;;;;6248433;28;20008;-52
2022/12/28 10:55:14;;;;;;;;;;;21.70;59.70;;;;;;6247491;28;19921;-54
2022/12/28 10:58:19;;;;;;;;;;;21.10;68.10;;;;;;6247937;28;19964;-48
2022/12/28 11:01:36;;;;;;;;;;;22.00;62.60;;;;;;6247139;28;19921;-51
2022/12/28 11:04:50;;;;;;;;;;;21.10;61.50;;;;;;6248820;28;19943;-50
2022/12/28 11:08:02;;;;;;;;;;;22.40;62.50;;;;;;6246930;28;19925;-51
2022/12/28 11:11:04;;;;;;;;;;;21.70;61.80;;;;;;6248540;28;20071;-51
2022/12/28 11:14:12;;;;;;;;;;;22.00;61.90;;;;;;6248145;28;19928;-49
2022/12/28 11:17:15;;;;;;;;;;;21.40;62.90;;;;;;6246883;28;19921;-47
2022/12/28 11:20:18;;;;;;;;;;;21.70;58.80;;;;;;6248398;28;19928;-47
2022/12/28 11:23:20;;;;;;;;;;;21.20;61.20;;;;;;6248182;28;19927;-51
2022/12/28 11:26:21;;;;;;;;;;;22.10;61.70;;;;;;6247120;28;20428;-50
2022/12/28 11:29:23;;;;;;;;;;;21.90;62.70;;;;;;6248286;28;19979;-53
2022/12/28 11:32:26;;;;;;;;;;;22.10;64.00;;;;;;6247752;28;19928;-51
2022/12/28 11:35:29;;;;;;;;;;;21.50;61.70;;;;;;6247481;28;20023;-54
2022/12/28 11:38:38;;;;;;;;;;;21.70;63.70;;;;;;6247500;28;19928;-52
2022/12/28 11:41:40;;;;;;;;;;;21.40;61.90;;;;;;6247490;28;19936;-54
2022/12/28 11:44:58;;;;;;;;;;;21.80;62.40;;;;;;6247642;28;20031;-48
2022/12/28 11:48:14;;;;;;;;;;;21.60;64.00;;;;;;6248186;28;20361;-48
2022/12/28 11:51:17;;;;;;;;;;;22.20;62.70;;;;;;6246493;28;19983;-48
2022/12/28 11:54:33;;;;;;;;;;;21.30;61.90;;;;;;6246094;28;19921;-47
2022/12/28 11:57:35;;;;;;;;;;;22.20;62.50;;;;;;6246344;28;19928;-47
2022/12/28 12:00:46;;;;;;;;;;;21.30;62.00;;;;;;6247289;28;19925;-45
2022/12/28 12:04:02;;;;;;;;;;;21.70;62.30;;;;;;6247114;28;19928;-48
2022/12/28 12:07:18;;;;;;;;;;;21.30;62.00;;;;;;6248576;28;19921;-52
2022/12/28 12:10:29;;;;;;;;;;;21.70;62.00;;;;;;6251083;28;19924;-47
2022/12/28 12:13:38;;;;;;;;;;;21.40;61.90;;;;;;6250378;28;19921;-49
2022/12/28 12:16:45;;;;;;;;;;;21.90;62.10;;;;;;6251473;28;19936;-46
2022/12/28 12:19:47;;;;;;;;;;;21.60;62.20;;;;;;6251280;28;19928;-48
2022/12/28 12:22:51;;;;;;;;;;;21.80;62.20;;;;;;6251396;28;20467;-48
2022/12/28 12:25:53;;;;;;;;;;;21.60;62.00;;;;;;6251043;28;19956;-48
2022/12/28 12:28:58;;;;;;;;;;;22.00;62.30;;;;;;6249578;28;20021;-47
2022/12/28 12:32:01;;;;;;;;;;;21.70;62.30;;;;;;6251003;28;19956;-51
2022/12/28 12:35:04;;;;;;;;;;;21.50;61.40;;;;;;6250872;28;19925;-47
2022/12/28 12:38:08;;;;;;;;;;;21.50;61.90;;;;;;6250861;28;19928;-49
2022/12/28 12:41:17;;;;;;;;;;;21.70;62.10;;;;;;6250835;28;19964;-50
2022/12/28 12:44:23;;;;;;;;;;;21.30;62.00;;;;;;6250790;28;19928;-49
2022/12/28 12:47:45;;;;;;;;;;;21.80;62.90;;;;;;6251170;28;19928;-52
2022/12/28 12:51:02;;;;;;;;;;;21.40;63.00;;;;;;6250716;28;19925;-50
2022/12/28 12:54:11;;;;;;;;;;;21.70;62.40;;;;;;6251435;28;19953;-48
2022/12/28 12:57:14;;;;;;;;;;;21.40;62.00;;;;;;6249579;28;19993;-51
2022/12/28 13:00:17;;;;;;;;;;;22.30;62.30;;;;;;6250909;28;19921;-50
2022/12/28 13:03:23;;;;;;;;;;;21.30;61.80;;;;;;6250285;28;20274;-50
2022/12/28 13:06:27;;;;;;;;;;;21.90;61.80;;;;;;6249358;28;19921;-50
2022/12/28 13:09:29;;;;;;;;;;;21.70;61.60;;;;;;6251078;28;19921;-49
2022/12/28 13:12:30;;;;;;;;;;;21.90;61.80;;;;;;6250962;28;20377;-50
2022/12/28 13:15:32;;;;;;;;;;;21.90;61.80;;;;;;6250277;28;20001;-46
2022/12/28 13:18:34;;;;;;;;;;;21.90;61.80;;;;;;6249869;28;19959;-50
2022/12/28 13:21:47;;;;;;;;;;;21.50;61.70;;;;;;6250670;28;19975;-49
2022/12/28 13:24:49;;;;;;;;;;;22.30;62.00;;;;;;6249005;28;20270;-49
2022/12/28 13:27:50;;;;;;;;;;;21.90;61.90;;;;;;6250511;28;19920;-49
2022/12/28 13:30:57;;;;;;;;;;;22.20;61.90;;;;;;6250422;28;20408;-51
2022/12/28 13:34:00;;;;;;;;;;;21.50;61.10;;;;;;6249881;28;19952;-51
2022/12/28 13:37:02;;;;;;;;;;;22.00;65.20;;;;;;6250097;28;19990;-50
2022/12/28 13:40:14;;;;;;;;;;;21.70;65.70;;;;;;6250021;28;19921;-50
2022/12/28 13:43:28;;;;;;;;;;;22.40;68.70;;;;;;6248423;28;19928;-50
2022/12/28 13:46:30;;;;;;;;;;;21.80;66.40;;;;;;6249778;28;19928;-51
2022/12/28 13:49:34;;;;;;;;;;;22.10;66.10;;;;;;6249661;28;20086;-49
2022/12/28 13:52:39;;;;;;;;;;;22.00;65.80;;;;;;6249859;28;19921;-49
2022/12/28 13:55:43;;;;;;;;;;;22.60;65.80;;;;;;6249695;28;19921;-50
2022/12/28 13:58:48;;;;;;;;;;;21.90;65.20;;;;;;6249749;28;19988;-51
2022/12/28 14:01:50;;;;;;;;;;;22.20;66.20;;;;;;6249425;28;19920;-50
2022/12/28 14:04:52;;;;;;;;;;;21.80;64.10;;;;;;6249071;28;19974;-51
2022/12/28 14:07:56;;;;;;;;;;;22.30;64.10;;;;;;6249609;28;19921;-51
2022/12/28 14:10:58;;;;;;;;;;;21.60;62.70;;;;;;6249412;28;19921;-52
2022/12/28 14:14:00;;;;;;;;;;;22.10;62.10;;;;;;6249156;28;19920;-49
2022/12/28 14:17:02;;;;;;;;;;;22.00;62.10;;;;;;6250735;28;19928;-51
2022/12/28 14:20:04;;;;;;;;;;;22.00;62.00;;;;;;6249476;28;19921;-50
2022/12/28 14:23:21;;;;;;;;;;;21.40;61.50;;;;;;6249866;28;19921;-51
2022/12/28 14:26:23;;;;;;;;;;;22.30;62.30;;;;;;6248092;28;19932;-48
2022/12/28 14:29:27;;;;;;;;;;;21.80;61.40;;;;;;6249543;28;19921;-50
2022/12/28 14:32:28;;;;;;;;;;;21.80;61.50;;;;;;6264228;28;19920;-51
2022/12/28 14:35:31;;;;;;;;;;;21.90;61.00;;;;;;6249071;28;20285;-50
2022/12/28 14:38:34;;;;;;;;;;;22.00;61.20;;;;;;6248757;28;19948;-48
2022/12/28 14:41:38;;;;;;;;;;;21.50;61.00;;;;;;6248678;28;19921;-48
2022/12/28 14:44:39;;;;;;;;;;;22.10;61.00;;;;;;6248975;28;19920;-47
2022/12/28 14:47:43;;;;;;;;;;;21.80;61.40;;;;;;6249553;28;19921;-46
2022/12/28 14:50:54;;;;;;;;;;;22.20;61.50;;;;;;6248488;28;19948;-48
2022/12/28 14:54:09;;;;;;;;;;;21.90;61.20;;;;;;6248390;28;19921;-48
2022/12/28 14:57:17;;;;;;;;;;;22.40;61.40;;;;;;6247090;28;19928;-46
2022/12/28 15:00:21;;;;;;;;;;;21.60;61.00;;;;;;6248521;28;19921;-48
2022/12/28 15:03:23;;;;;;;;;;;22.60;61.60;;;;;;6248134;28;19925;-49
2022/12/28 15:06:26;;;;;;;;;;;21.60;61.00;;;;;;6230853;28;19967;-50
2022/12/28 15:09:27;;;;;;;;;;;21.90;61.30;;;;;;6248226;28;19921;-47
2022/12/28 15:12:29;;;;;;;;;;;21.70;60.80;;;;;;6247851;28;19960;-46
2022/12/28 15:15:30;;;;;;;;;;;22.20;61.20;;;;;;6248261;28;19928;-50
2022/12/28 15:18:33;;;;;;;;;;;22.10;61.10;;;;;;6248005;28;19928;-50
2022/12/28 15:21:34;;;;;;;;;;;22.00;60.30;;;;;;6247848;28;20011;-49
2022/12/28 15:24:36;;;;;;;;;;;21.80;61.60;;;;;;6248157;28;19921;-49
2022/12/28 15:27:38;;;;;;;;;;;22.10;61.10;;;;;;6248025;28;20345;-50
2022/12/28 15:30:40;;;;;;;;;;;22.20;61.00;;;;;;6248630;28;19956;-51
2022/12/28 15:33:41;;;;;;;;;;;22.00;60.50;;;;;;6246564;28;19921;-51
2022/12/28 15:36:44;;;;;;;;;;;22.20;62.10;;;;;;6247417;28;20059;-49
2022/12/28 15:39:46;;;;;;;;;;;21.90;60.60;;;;;;6247547;28;19925;-50
2022/12/28 15:42:48;;;;;;;;;;;22.30;60.00;;;;;;6247332;28;19921;-50
2022/12/28 15:45:52;;;;;;;;;;;22.30;60.50;;;;;;6247651;28;19921;-48
2022/12/28 15:48:53;;;;;;;;;;;21.80;60.00;;;;;;6248169;28;19925;-50
2022/12/28 15:51:55;;;;;;;;;;;22.30;60.40;;;;;;6247846;28;20412;-48
2022/12/28 15:54:57;;;;;;;;;;;22.20;60.40;;;;;;6247522;28;20384;-49
2022/12/28 15:57:58;;;;;;;;;;;22.20;60.10;;;;;;6246776;28;19921;-45
2022/12/28 16:00:59;;;;;;;;;;;21.70;60.00;;;;;;6247598;28;19928;-49
2022/12/28 16:04:08;;;;;;;;;;;22.20;60.00;;;;;;6247002;28;20336;-49
2022/12/28 16:07:09;;;;;;;;;;;22.30;60.20;;;;;;6247281;28;19921;-51
2022/12/28 16:10:11;;;;;;;;;;;22.30;60.40;;;;;;6247467;28;19971;-49
2022/12/28 16:13:12;;;;;;;;;;;22.00;60.10;;;;;;6247198;28;19932;-50
2022/12/28 16:16:13;;;;;;;;;;;22.70;60.80;;;;;;6247112;28;20041;-53
2022/12/28 16:19:15;;;;;;;;;;;22.00;59.90;;;;;;6247253;28;19921;-50
2022/12/28 16:22:17;;;;;;;;;;;22.70;60.70;;;;;;6247081;28;19953;-50
2022/12/28 16:25:18;;;;;;;;;;;21.80;60.10;;;;;;6247409;28;19951;-52
2022/12/28 16:28:20;;;;;;;;;;;22.40;60.40;;;;;;6247668;28;19932;-53
2022/12/28 16:31:22;;;;;;;;;;;22.00;60.00;;;;;;6246978;28;19967;-50
2022/12/28 16:34:23;;;;;;;;;;;22.00;59.60;;;;;;6245556;28;20021;-49
2022/12/28 16:37:25;;;;;;;;;;;22.10;60.30;;;;;;6247051;28;19928;-51
2022/12/28 16:40:26;;;;;;;;;;;22.10;60.30;;;;;;6246747;28;19928;-51
2022/12/28 16:43:28;;;;;;;;;;;22.20;60.30;;;;;;6246729;28;19921;-50
2022/12/28 16:46:29;;;;;;;;;;;22.60;60.50;;;;;;6247035;28;20373;-53
2022/12/28 16:49:31;;;;;;;;;;;21.90;60.10;;;;;;6247079;28;19943;-52
2022/12/28 16:52:33;;;;;;;;;;;22.70;60.50;;;;;;6245424;28;20312;-48
2022/12/28 16:55:37;;;;;;;;;;;21.90;60.20;;;;;;6250693;28;19921;-49
2022/12/28 16:58:38;;;;;;;;;;;22.50;60.50;;;;;;6250914;28;19921;-46
2022/12/28 17:01:41;;;;;;;;;;;21.80;61.00;;;;;;6250904;28;19921;-47
2022/12/28 17:04:43;;;;;;;;;;;22.20;60.60;;;;;;6251027;28;20011;-50
2022/12/28 17:07:45;;;;;;;;;;;21.90;60.50;;;;;;6250912;28;19928;-46
2022/12/28 17:10:46;;;;;;;;;;;22.20;60.60;;;;;;6250681;28;20002;-48
2022/12/28 17:13:47;;;;;;;;;;;22.20;60.70;;;;;;6250477;28;19964;-46
2022/12/28 17:16:48;;;;;;;;;;;22.50;61.00;;;;;;6250644;28;19947;-48
2022/12/28 17:19:50;;;;;;;;;;;21.80;60.50;;;;;;6250414;28;19921;-46
2022/12/28 17:22:52;;;;;;;;;;;22.30;60.90;;;;;;6250324;28;19921;-48
2022/12/28 17:25:54;;;;;;;;;;;21.70;60.70;;;;;;6250463;28;20439;-48
2022/12/28 17:28:55;;;;;;;;;;;22.40;61.00;;;;;;6249201;28;19921;-47
2022/12/28 17:31:56;;;;;;;;;;;21.60;60.70;;;;;;6250175;28;19927;-48
2022/12/28 17:34:58;;;;;;;;;;;21.80;60.30;;;;;;6249939;28;19921;-48
2022/12/28 17:38:00;;;;;;;;;;;22.00;60.90;;;;;;6250217;28;20285;-45
2022/12/28 17:41:05;;;;;;;;;;;22.10;61.10;;;;;;6249927;28;20373;-48
2022/12/28 17:44:06;;;;;;;;;;;22.00;61.00;;;;;;6250234;28;19935;-47
2022/12/28 17:47:08;;;;;;;;;;;22.00;61.30;;;;;;6249981;28;19929;-45
2022/12/28 17:50:09;;;;;;;;;;;21.70;61.20;;;;;;6249788;28;20344;-47
2022/12/28 17:53:11;;;;;;;;;;;22.50;61.80;;;;;;6249928;28;19921;-48
2022/12/28 17:56:13;;;;;;;;;;;21.80;61.20;;;;;;6249889;28;20281;-48
2022/12/28 17:59:15;;;;;;;;;;;22.30;61.70;;;;;;6249945;28;20368;-46
2022/12/28 18:02:16;;;;;;;;;;;21.40;61.20;;;;;;6248513;28;19928;-47
2022/12/28 18:05:18;;;;;;;;;;;22.00;61.80;;;;;;6249383;28;20023;-45
2022/12/28 18:08:20;;;;;;;;;;;21.50;61.40;;;;;;6249506;28;19960;-49
2022/12/28 18:11:22;;;;;;;;;;;22.10;61.80;;;;;;6249982;28;20262;-48
2022/12/28 18:14:23;;;;;;;;;;;21.80;61.70;;;;;;6249608;28;19948;-45
2022/12/28 18:17:25;;;;;;;;;;;22.30;62.00;;;;;;6249328;28;19944;-47